Columbus, MT

1:50 PM MDT on July 07, 2015 (GMT -0600)
W. 4th Ave N. | | Change Station
CLOSE
Current Station
Personal Weather Station
Location: Columbus, MT
Elevation: 3625 ft
Nearby Weather Stations

Elev 3625 ft 45.64 °N, 109.26 °W | Updated 14 minutes ago

Clear
Clear
79.8 °F
Feels Like 79 °F
N
1.0
Wind Variable Wind from ENE
Gusts 3.0 mph

Today
High -- | Low -- °F
--% Chance of Precip.
Yesterday
High -- | Low -- °F
Precip. -- in
5:35 AM 9:08 PM
Waning Gibbous, 62% visible
Pressure 29.97 in
Visibility 10.0 miles
Clouds Few 6000 ft
Few 22000 ft
Heat Index 79 °F
Dew Point 49 °F
Humidity 34%
Rainfall 0.00 in
Snow Depth Not available.
UV 11 out of 12
Pollen 5.00 out of 12
Air Quality Not available.
Flu Activity Not available.
METAR KBIL 071853Z 20003KT 10SM FEW060 FEW220 27/06 A3006 RMK AO2 SLP149 T02670056

More Conditions Fewer Conditions

Pressure 29.97 in
Visibility 10.0 miles
Clouds Few 6000 ft
Few 22000 ft
Heat Index 79 °F
Dew Point 49 °F
Humidity 34%
Rainfall 0.00 in
Snow Depth Not available.
UV 11 out of 12
Pollen 5.00 out of 12
Air Quality Not available.
Flu Activity Not available.
METAR KBIL 071853Z 20003KT 10SM FEW060 FEW220 27/06 A3006 RMK AO2 SLP149 T02670056

More Conditions Fewer Conditions

10-Day Weather Forecast

×

Almanac

Astronomy

Jul. 07, 2015 Rise Set
Actual Time
Civil Twilight
Nautical Twilight
Astronomical Twilight
Moon
Length of Visible Light
Length of Day
Tomorrow will be .
, % of the Moon is Illuminated

Today's Extremes

State Highs State Lows

Community

WunderPhotos

Upload Photos

1,835,884 photos uploaded!

WunderBlogs® & News

Nearby

Air Quality

  Air Quality AQ Index Pollutant
Not available.

Snow Depth

Station Depth Elevation

Earthquake Activity

City Distance Mag. Time & Date
Minimum magnitude displayed is 2.5.

Coastal Water Temperatures

Place Temperature

Stations

Nearby Weather Stations

Station Location Temp. Windchill Dew Point Humidity Wind Precip. Elev Updated Type